sensor_id;sensor_type;location;lat;lon;timestamp;temperature;humidity
18721;DHT22;9489;50.948;3.114;2023-03-15T00:00:42;5.70;99.90
18721;DHT22;9489;50.948;3.114;2023-03-15T00:03:08;5.60;99.90
18721;DHT22;9489;50.948;3.114;2023-03-15T00:05:33;5.60;99.90
18721;DHT22;9489;50.948;3.114;2023-03-15T00:07:59;5.60;99.90
18721;DHT22;9489;50.948;3.114;2023-03-15T00:10:26;5.60;99.90
18721;DHT22;9489;50.948;3.114;2023-03-15T00:12:52;5.60;99.90
18721;DHT22;9489;50.948;3.114;2023-03-15T00:15:17;5.60;99.90
18721;DHT22;9489;50.948;3.114;2023-03-15T00:17:43;5.70;99.90
18721;DHT22;9489;50.948;3.114;2023-03-15T00:20:10;5.70;99.90
18721;DHT22;9489;50.948;3.114;2023-03-15T00:22:36;5.70;99.90
18721;DHT22;9489;50.948;3.114;2023-03-15T00:25:02;5.80;99.90
18721;DHT22;9489;50.948;3.114;2023-03-15T00:27:28;5.80;99.90
18721;DHT22;9489;50.948;3.114;2023-03-15T00:29:54;5.80;99.90
18721;DHT22;9489;50.948;3.114;2023-03-15T00:32:19;5.80;99.90
18721;DHT22;9489;50.948;3.114;2023-03-15T00:34:45;5.80;99.90
18721;DHT22;9489;50.948;3.114;2023-03-15T00:37:16;5.80;99.90
18721;DHT22;9489;50.948;3.114;2023-03-15T00:39:47;5.80;99.90
18721;DHT22;9489;50.948;3.114;2023-03-15T00:42:13;5.80;99.90
18721;DHT22;9489;50.948;3.114;2023-03-15T00:44:41;5.70;99.90
18721;DHT22;9489;50.948;3.114;2023-03-15T00:47:08;5.80;99.90
18721;DHT22;9489;50.948;3.114;2023-03-15T00:49:34;5.80;99.90
18721;DHT22;9489;50.948;3.114;2023-03-15T00:52:00;5.80;99.90
18721;DHT22;9489;50.948;3.114;2023-03-15T00:54:26;5.70;99.90
18721;DHT22;9489;50.948;3.114;2023-03-15T00:56:51;5.70;99.90
18721;DHT22;9489;50.948;3.114;2023-03-15T00:59:17;5.70;99.90
18721;DHT22;9489;50.948;3.114;2023-03-15T01:01:42;5.70;99.90
18721;DHT22;9489;50.948;3.114;2023-03-15T01:04:12;5.70;99.90
18721;DHT22;9489;50.948;3.114;2023-03-15T01:06:38;5.80;99.90
18721;DHT22;9489;50.948;3.114;2023-03-15T01:09:04;5.80;99.90
18721;DHT22;9489;50.948;3.114;2023-03-15T01:11:30;5.70;99.90
18721;DHT22;9489;50.948;3.114;2023-03-15T01:13:57;5.70;99.90
18721;DHT22;9489;50.948;3.114;2023-03-15T01:16:24;5.70;99.90
18721;DHT22;9489;50.948;3.114;2023-03-15T01:18:50;5.70;99.90
18721;DHT22;9489;50.948;3.114;2023-03-15T01:21:16;5.60;99.90
18721;DHT22;9489;50.948;3.114;2023-03-15T01:23:42;5.60;99.90
18721;DHT22;9489;50.948;3.114;2023-03-15T01:26:11;5.60;99.90
18721;DHT22;9489;50.948;3.114;2023-03-15T01:28:37;5.60;99.90
18721;DHT22;9489;50.948;3.114;2023-03-15T01:31:03;5.50;99.90
18721;DHT22;9489;50.948;3.114;2023-03-15T01:33:29;5.50;99.90
18721;DHT22;9489;50.948;3.114;2023-03-15T01:36:03;5.50;99.90
18721;DHT22;9489;50.948;3.114;2023-03-15T01:38:30;5.50;99.90
18721;DHT22;9489;50.948;3.114;2023-03-15T01:40:56;5.60;99.90
18721;DHT22;9489;50.948;3.114;2023-03-15T01:43:23;5.50;99.90
18721;DHT22;9489;50.948;3.114;2023-03-15T01:45:58;5.60;99.90
18721;DHT22;9489;50.948;3.114;2023-03-15T01:50:59;5.70;99.90
18721;DHT22;9489;50.948;3.114;2023-03-15T01:53:28;5.70;99.90
18721;DHT22;9489;50.948;3.114;2023-03-15T01:55:55;5.70;99.90
18721;DHT22;9489;50.948;3.114;2023-03-15T01:58:23;5.60;99.90
18721;DHT22;9489;50.948;3.114;2023-03-15T02:00:50;5.60;99.90
18721;DHT22;9489;50.948;3.114;2023-03-15T02:03:35;5.60;99.90
18721;DHT22;9489;50.948;3.114;2023-03-15T02:06:06;5.60;99.90
18721;DHT22;9489;50.948;3.114;2023-03-15T02:08:38;5.60;99.90
18721;DHT22;9489;50.948;3.114;2023-03-15T02:11:05;5.60;99.90
18721;DHT22;9489;50.948;3.114;2023-03-15T02:13:32;5.60;99.90
18721;DHT22;9489;50.948;3.114;2023-03-15T02:15:59;5.60;99.90
18721;DHT22;9489;50.948;3.114;2023-03-15T02:18:25;5.60;99.90
18721;DHT22;9489;50.948;3.114;2023-03-15T02:21:07;5.60;99.90
18721;DHT22;9489;50.948;3.114;2023-03-15T02:23:34;5.60;99.90
18721;DHT22;9489;50.948;3.114;2023-03-15T02:26:24;5.60;99.90
18721;DHT22;9489;50.948;3.114;2023-03-15T02:28:53;5.60;99.90
18721;DHT22;9489;50.948;3.114;2023-03-15T02:31:20;5.60;99.90
18721;DHT22;9489;50.948;3.114;2023-03-15T02:33:49;5.60;99.90
18721;DHT22;9489;50.948;3.114;2023-03-15T02:36:22;5.60;99.90
18721;DHT22;9489;50.948;3.114;2023-03-15T02:38:48;5.60;99.90
18721;DHT22;9489;50.948;3.114;2023-03-15T02:41:18;5.50;99.90
18721;DHT22;9489;50.948;3.114;2023-03-15T02:43:46;5.50;99.90
18721;DHT22;9489;50.948;3.114;2023-03-15T02:46:14;5.40;99.90
18721;DHT22;9489;50.948;3.114;2023-03-15T02:48:42;5.50;99.90
18721;DHT22;9489;50.948;3.114;2023-03-15T02:51:18;5.50;99.90
18721;DHT22;9489;50.948;3.114;2023-03-15T02:53:44;5.50;99.90
18721;DHT22;9489;50.948;3.114;2023-03-15T02:56:10;5.40;99.90
18721;DHT22;9489;50.948;3.114;2023-03-15T02:58:36;5.40;99.90
18721;DHT22;9489;50.948;3.114;2023-03-15T03:01:01;5.40;99.90
18721;DHT22;9489;50.948;3.114;2023-03-15T03:03:27;5.40;99.90
18721;DHT22;9489;50.948;3.114;2023-03-15T03:05:52;5.30;99.90
18721;DHT22;9489;50.948;3.114;2023-03-15T03:08:18;5.30;99.90
18721;DHT22;9489;50.948;3.114;2023-03-15T03:10:44;5.30;99.90
18721;DHT22;9489;50.948;3.114;2023-03-15T03:13:09;5.30;99.90
18721;DHT22;9489;50.948;3.114;2023-03-15T03:15:35;5.20;99.90
18721;DHT22;9489;50.948;3.114;2023-03-15T03:18:00;5.20;99.90
18721;DHT22;9489;50.948;3.114;2023-03-15T03:20:26;5.20;99.90
18721;DHT22;9489;50.948;3.114;2023-03-15T03:22:52;5.20;99.90
18721;DHT22;9489;50.948;3.114;2023-03-15T03:25:20;5.20;99.90
18721;DHT22;9489;50.948;3.114;2023-03-15T03:27:46;5.20;99.90
18721;DHT22;9489;50.948;3.114;2023-03-15T03:30:12;5.30;99.90
18721;DHT22;9489;50.948;3.114;2023-03-15T03:32:40;5.30;99.90
18721;DHT22;9489;50.948;3.114;2023-03-15T03:35:06;5.30;99.90
18721;DHT22;9489;50.948;3.114;2023-03-15T03:37:32;5.30;99.90
18721;DHT22;9489;50.948;3.114;2023-03-15T03:40:00;5.30;99.90
18721;DHT22;9489;50.948;3.114;2023-03-15T03:42:25;5.30;99.90
18721;DHT22;9489;50.948;3.114;2023-03-15T03:44:51;5.30;99.90
18721;DHT22;9489;50.948;3.114;2023-03-15T03:47:19;5.30;99.90
18721;DHT22;9489;50.948;3.114;2023-03-15T03:49:44;5.40;99.90
18721;DHT22;9489;50.948;3.114;2023-03-15T03:52:10;5.40;99.90
18721;DHT22;9489;50.948;3.114;2023-03-15T03:54:36;5.40;99.90
18721;DHT22;9489;50.948;3.114;2023-03-15T03:57:01;5.40;99.90
18721;DHT22;9489;50.948;3.114;2023-03-15T03:59:27;5.40;99.90
18721;DHT22;9489;50.948;3.114;2023-03-15T04:01:53;5.40;99.90
18721;DHT22;9489;50.948;3.114;2023-03-15T04:04:18;5.30;99.90
18721;DHT22;9489;50.948;3.114;2023-03-15T04:06:44;5.20;99.90
18721;DHT22;9489;50.948;3.114;2023-03-15T04:09:14;5.00;99.90
18721;DHT22;9489;50.948;3.114;2023-03-15T04:11:41;4.90;99.90
18721;DHT22;9489;50.948;3.114;2023-03-15T04:14:11;4.80;99.90
18721;DHT22;9489;50.948;3.114;2023-03-15T04:16:37;4.70;99.90
18721;DHT22;9489;50.948;3.114;2023-03-15T04:19:03;4.70;99.90
18721;DHT22;9489;50.948;3.114;2023-03-15T04:21:29;4.70;99.90
18721;DHT22;9489;50.948;3.114;2023-03-15T04:23:58;4.70;99.90
18721;DHT22;9489;50.948;3.114;2023-03-15T04:26:25;4.70;99.90
18721;DHT22;9489;50.948;3.114;2023-03-15T04:28:53;4.80;99.90
18721;DHT22;9489;50.948;3.114;2023-03-15T04:31:19;4.80;99.90
18721;DHT22;9489;50.948;3.114;2023-03-15T04:33:44;4.70;99.90
18721;DHT22;9489;50.948;3.114;2023-03-15T04:36:10;4.60;99.90
18721;DHT22;9489;50.948;3.114;2023-03-15T04:38:43;4.60;99.90
18721;DHT22;9489;50.948;3.114;2023-03-15T04:41:11;4.60;99.90
18721;DHT22;9489;50.948;3.114;2023-03-15T04:43:37;4.50;99.90
18721;DHT22;9489;50.948;3.114;2023-03-15T04:46:03;4.40;99.90
18721;DHT22;9489;50.948;3.114;2023-03-15T04:48:28;4.50;99.90
18721;DHT22;9489;50.948;3.114;2023-03-15T04:50:54;4.50;99.90
18721;DHT22;9489;50.948;3.114;2023-03-15T04:53:19;4.50;99.90
18721;DHT22;9489;50.948;3.114;2023-03-15T04:55:45;4.50;99.90
18721;DHT22;9489;50.948;3.114;2023-03-15T04:58:10;4.60;99.90
18721;DHT22;9489;50.948;3.114;2023-03-15T05:00:36;4.60;99.90
18721;DHT22;9489;50.948;3.114;2023-03-15T05:03:02;4.70;99.90
18721;DHT22;9489;50.948;3.114;2023-03-15T05:05:27;4.70;99.90
18721;DHT22;9489;50.948;3.114;2023-03-15T05:07:54;4.80;99.90
18721;DHT22;9489;50.948;3.114;2023-03-15T05:10:19;4.70;99.90
18721;DHT22;9489;50.948;3.114;2023-03-15T05:12:45;4.80;99.90
18721;DHT22;9489;50.948;3.114;2023-03-15T05:15:11;4.70;99.90
18721;DHT22;9489;50.948;3.114;2023-03-15T05:17:37;4.60;99.90
18721;DHT22;9489;50.948;3.114;2023-03-15T05:20:02;4.50;99.90
18721;DHT22;9489;50.948;3.114;2023-03-15T05:22:36;4.50;99.90
18721;DHT22;9489;50.948;3.114;2023-03-15T05:25:02;4.50;99.90
18721;DHT22;9489;50.948;3.114;2023-03-15T05:27:28;4.40;99.90
18721;DHT22;9489;50.948;3.114;2023-03-15T05:29:53;4.30;99.90
18721;DHT22;9489;50.948;3.114;2023-03-15T05:32:19;4.30;99.90
18721;DHT22;9489;50.948;3.114;2023-03-15T05:34:51;4.30;99.90
18721;DHT22;9489;50.948;3.114;2023-03-15T05:37:21;4.30;99.90
18721;DHT22;9489;50.948;3.114;2023-03-15T05:39:46;4.20;99.90
18721;DHT22;9489;50.948;3.114;2023-03-15T05:42:12;4.20;99.90
18721;DHT22;9489;50.948;3.114;2023-03-15T05:44:37;4.20;99.90
18721;DHT22;9489;50.948;3.114;2023-03-15T05:47:03;4.10;99.90
18721;DHT22;9489;50.948;3.114;2023-03-15T05:49:29;4.00;99.90
18721;DHT22;9489;50.948;3.114;2023-03-15T05:51:55;4.00;99.90
18721;DHT22;9489;50.948;3.114;2023-03-15T05:54:21;4.00;99.90
18721;DHT22;9489;50.948;3.114;2023-03-15T05:56:46;4.00;99.90
18721;DHT22;9489;50.948;3.114;2023-03-15T05:59:12;4.00;99.90
18721;DHT22;9489;50.948;3.114;2023-03-15T06:01:37;3.90;99.90
18721;DHT22;9489;50.948;3.114;2023-03-15T06:04:03;3.90;99.90
18721;DHT22;9489;50.948;3.114;2023-03-15T06:06:29;3.80;99.90
18721;DHT22;9489;50.948;3.114;2023-03-15T06:08:55;3.80;99.90
18721;DHT22;9489;50.948;3.114;2023-03-15T06:11:20;3.70;99.90
18721;DHT22;9489;50.948;3.114;2023-03-15T06:13:46;3.70;99.90
18721;DHT22;9489;50.948;3.114;2023-03-15T06:16:12;3.60;99.90
18721;DHT22;9489;50.948;3.114;2023-03-15T06:18:37;3.70;99.90
18721;DHT22;9489;50.948;3.114;2023-03-15T06:21:03;3.70;99.90
18721;DHT22;9489;50.948;3.114;2023-03-15T06:23:29;3.80;99.90
18721;DHT22;9489;50.948;3.114;2023-03-15T06:25:54;3.80;99.90
18721;DHT22;9489;50.948;3.114;2023-03-15T06:28:20;3.90;99.90
18721;DHT22;9489;50.948;3.114;2023-03-15T06:30:45;3.90;99.90
18721;DHT22;9489;50.948;3.114;2023-03-15T06:33:11;3.90;99.90
18721;DHT22;9489;50.948;3.114;2023-03-15T06:35:37;3.90;99.90
18721;DHT22;9489;50.948;3.114;2023-03-15T06:38:02;4.00;99.90
18721;DHT22;9489;50.948;3.114;2023-03-15T06:40:28;4.00;99.90
18721;DHT22;9489;50.948;3.114;2023-03-15T06:42:54;4.00;99.90
18721;DHT22;9489;50.948;3.114;2023-03-15T06:45:20;4.00;99.90
18721;DHT22;9489;50.948;3.114;2023-03-15T06:47:45;4.00;99.90
18721;DHT22;9489;50.948;3.114;2023-03-15T06:50:11;4.10;99.90
18721;DHT22;9489;50.948;3.114;2023-03-15T06:52:36;4.00;99.90
18721;DHT22;9489;50.948;3.114;2023-03-15T06:55:03;4.10;99.90
18721;DHT22;9489;50.948;3.114;2023-03-15T06:57:29;4.10;99.90
18721;DHT22;9489;50.948;3.114;2023-03-15T06:59:55;4.20;99.90
18721;DHT22;9489;50.948;3.114;2023-03-15T07:02:21;4.20;99.90
18721;DHT22;9489;50.948;3.114;2023-03-15T07:04:47;4.30;99.90
18721;DHT22;9489;50.948;3.114;2023-03-15T07:07:13;4.30;99.90
18721;DHT22;9489;50.948;3.114;2023-03-15T07:09:39;4.40;99.90
18721;DHT22;9489;50.948;3.114;2023-03-15T07:12:06;4.50;99.90
18721;DHT22;9489;50.948;3.114;2023-03-15T07:14:33;4.60;99.90
18721;DHT22;9489;50.948;3.114;2023-03-15T07:16:58;4.70;99.90
18721;DHT22;9489;50.948;3.114;2023-03-15T07:19:24;4.80;99.90
18721;DHT22;9489;50.948;3.114;2023-03-15T07:21:50;5.10;99.90
18721;DHT22;9489;50.948;3.114;2023-03-15T07:24:16;5.30;99.90
18721;DHT22;9489;50.948;3.114;2023-03-15T07:26:42;5.40;99.90
18721;DHT22;9489;50.948;3.114;2023-03-15T07:29:08;5.60;99.90
18721;DHT22;9489;50.948;3.114;2023-03-15T07:31:33;5.60;99.90
18721;DHT22;9489;50.948;3.114;2023-03-15T07:33:59;5.80;99.90
18721;DHT22;9489;50.948;3.114;2023-03-15T07:36:25;6.00;99.90
18721;DHT22;9489;50.948;3.114;2023-03-15T07:38:50;6.40;99.90
18721;DHT22;9489;50.948;3.114;2023-03-15T07:41:16;6.70;99.90
18721;DHT22;9489;50.948;3.114;2023-03-15T07:43:41;7.30;99.90
18721;DHT22;9489;50.948;3.114;2023-03-15T07:46:07;8.00;99.90
18721;DHT22;9489;50.948;3.114;2023-03-15T07:48:32;8.60;99.90
18721;DHT22;9489;50.948;3.114;2023-03-15T07:50:58;9.10;99.90
18721;DHT22;9489;50.948;3.114;2023-03-15T07:53:24;9.50;99.90
18721;DHT22;9489;50.948;3.114;2023-03-15T07:55:50;10.10;99.90
18721;DHT22;9489;50.948;3.114;2023-03-15T07:58:15;10.30;51.70
18721;DHT22;9489;50.948;3.114;2023-03-15T08:00:41;10.80;2.60
18721;DHT22;9489;50.948;3.114;2023-03-15T08:03:07;11.40;1.00
18721;DHT22;9489;50.948;3.114;2023-03-15T08:05:33;11.90;1.00
18721;DHT22;9489;50.948;3.114;2023-03-15T08:07:59;12.40;1.00
18721;DHT22;9489;50.948;3.114;2023-03-15T08:10:25;13.00;1.00
18721;DHT22;9489;50.948;3.114;2023-03-15T08:12:51;13.90;1.00
18721;DHT22;9489;50.948;3.114;2023-03-15T08:15:17;14.00;99.90
18721;DHT22;9489;50.948;3.114;2023-03-15T08:17:43;14.30;99.90
18721;DHT22;9489;50.948;3.114;2023-03-15T08:20:10;14.90;1.00
18721;DHT22;9489;50.948;3.114;2023-03-15T08:22:37;15.20;1.00
18721;DHT22;9489;50.948;3.114;2023-03-15T08:25:03;15.70;32.10
18721;DHT22;9489;50.948;3.114;2023-03-15T08:27:28;16.00;99.90
18721;DHT22;9489;50.948;3.114;2023-03-15T08:29:54;15.90;1.00
18721;DHT22;9489;50.948;3.114;2023-03-15T08:32:20;15.90;1.00
18721;DHT22;9489;50.948;3.114;2023-03-15T08:34:46;16.20;99.90
18721;DHT22;9489;50.948;3.114;2023-03-15T08:37:12;16.50;99.90
18721;DHT22;9489;50.948;3.114;2023-03-15T08:39:38;16.70;99.90
18721;DHT22;9489;50.948;3.114;2023-03-15T08:42:05;16.80;1.00
18721;DHT22;9489;50.948;3.114;2023-03-15T08:44:31;17.40;1.00
18721;DHT22;9489;50.948;3.114;2023-03-15T08:46:56;17.10;1.00
18721;DHT22;9489;50.948;3.114;2023-03-15T08:49:22;17.10;1.00
18721;DHT22;9489;50.948;3.114;2023-03-15T08:51:48;17.50;1.00
18721;DHT22;9489;50.948;3.114;2023-03-15T08:54:14;17.70;1.00
18721;DHT22;9489;50.948;3.114;2023-03-15T08:56:40;18.00;99.90
18721;DHT22;9489;50.948;3.114;2023-03-15T08:59:06;18.50;99.90
18721;DHT22;9489;50.948;3.114;2023-03-15T09:01:32;19.10;68.30
18721;DHT22;9489;50.948;3.114;2023-03-15T09:03:59;19.60;1.00
18721;DHT22;9489;50.948;3.114;2023-03-15T09:06:26;19.50;1.00
18721;DHT22;9489;50.948;3.114;2023-03-15T09:08:51;18.70;1.00
18721;DHT22;9489;50.948;3.114;2023-03-15T09:11:21;18.50;1.00
18721;DHT22;9489;50.948;3.114;2023-03-15T09:13:47;17.70;99.90
18721;DHT22;9489;50.948;3.114;2023-03-15T09:16:13;16.90;99.90
18721;DHT22;9489;50.948;3.114;2023-03-15T09:18:39;16.70;99.90
18721;DHT22;9489;50.948;3.114;2023-03-15T09:21:08;16.90;99.90
18721;DHT22;9489;50.948;3.114;2023-03-15T09:23:34;16.60;99.90
18721;DHT22;9489;50.948;3.114;2023-03-15T09:25:59;16.80;99.90
18721;DHT22;9489;50.948;3.114;2023-03-15T09:28:25;17.50;99.90
18721;DHT22;9489;50.948;3.114;2023-03-15T09:30:51;18.10;90.20
18721;DHT22;9489;50.948;3.114;2023-03-15T09:33:16;18.30;1.00
18721;DHT22;9489;50.948;3.114;2023-03-15T09:35:42;18.10;1.00
18721;DHT22;9489;50.948;3.114;2023-03-15T09:38:09;17.90;1.00
18721;DHT22;9489;50.948;3.114;2023-03-15T09:40:40;18.10;1.00
18721;DHT22;9489;50.948;3.114;2023-03-15T09:48:31;19.20;1.00
18721;DHT22;9489;50.948;3.114;2023-03-15T09:51:08;18.90;1.00
18721;DHT22;9489;50.948;3.114;2023-03-15T09:53:51;18.60;1.00
18721;DHT22;9489;50.948;3.114;2023-03-15T09:56:25;18.40;1.00
18721;DHT22;9489;50.948;3.114;2023-03-15T09:58:55;17.50;99.90
18721;DHT22;9489;50.948;3.114;2023-03-15T10:01:28;17.00;99.90
18721;DHT22;9489;50.948;3.114;2023-03-15T10:03:55;16.40;99.90
18721;DHT22;9489;50.948;3.114;2023-03-15T10:06:27;15.50;99.90
18721;DHT22;9489;50.948;3.114;2023-03-15T10:08:58;14.90;99.90
18721;DHT22;9489;50.948;3.114;2023-03-15T10:11:35;14.30;1.00
18721;DHT22;9489;50.948;3.114;2023-03-15T10:14:25;14.00;11.80
18721;DHT22;9489;50.948;3.114;2023-03-15T10:16:54;14.60;1.00
18721;DHT22;9489;50.948;3.114;2023-03-15T10:19:50;15.60;1.00
18721;DHT22;9489;50.948;3.114;2023-03-15T10:22:24;16.90;1.00
18721;DHT22;9489;50.948;3.114;2023-03-15T10:30:00;19.90;99.90
18721;DHT22;9489;50.948;3.114;2023-03-15T10:32:29;19.70;99.90
18721;DHT22;9489;50.948;3.114;2023-03-15T10:35:00;19.40;99.90
18721;DHT22;9489;50.948;3.114;2023-03-15T10:37:25;18.80;99.90
18721;DHT22;9489;50.948;3.114;2023-03-15T10:39:57;18.40;99.90
18721;DHT22;9489;50.948;3.114;2023-03-15T10:42:31;18.10;99.90
18721;DHT22;9489;50.948;3.114;2023-03-15T10:44:58;18.30;99.90
18721;DHT22;9489;50.948;3.114;2023-03-15T10:47:25;18.10;99.90
18721;DHT22;9489;50.948;3.114;2023-03-15T10:49:58;18.90;99.90
18721;DHT22;9489;50.948;3.114;2023-03-15T10:52:38;18.00;1.00
18721;DHT22;9489;50.948;3.114;2023-03-15T10:55:14;16.60;1.00
18721;DHT22;9489;50.948;3.114;2023-03-15T10:57:54;15.30;1.00
18721;DHT22;9489;50.948;3.114;2023-03-15T11:03:14;15.10;99.90
18721;DHT22;9489;50.948;3.114;2023-03-15T11:05:51;16.30;99.90
18721;DHT22;9489;50.948;3.114;2023-03-15T11:08:19;16.50;99.90
18721;DHT22;9489;50.948;3.114;2023-03-15T11:10:54;16.70;71.20
18721;DHT22;9489;50.948;3.114;2023-03-15T11:13:28;16.50;1.00
18721;DHT22;9489;50.948;3.114;2023-03-15T11:18:51;16.60;1.00
18721;DHT22;9489;50.948;3.114;2023-03-15T11:21:23;17.60;1.00
18721;DHT22;9489;50.948;3.114;2023-03-15T11:23:50;17.40;1.00
18721;DHT22;9489;50.948;3.114;2023-03-15T11:26:23;17.00;1.00
18721;DHT22;9489;50.948;3.114;2023-03-15T11:28:55;17.30;1.00
18721;DHT22;9489;50.948;3.114;2023-03-15T11:31:24;18.30;1.00
18721;DHT22;9489;50.948;3.114;2023-03-15T11:33:59;18.80;1.00
18721;DHT22;9489;50.948;3.114;2023-03-15T11:36:31;18.70;1.00
18721;DHT22;9489;50.948;3.114;2023-03-15T11:38:59;18.80;1.00
18721;DHT22;9489;50.948;3.114;2023-03-15T11:41:38;19.00;1.00
18721;DHT22;9489;50.948;3.114;2023-03-15T11:44:26;19.30;1.00
18721;DHT22;9489;50.948;3.114;2023-03-15T11:49:53;17.90;1.00
18721;DHT22;9489;50.948;3.114;2023-03-15T11:52:23;17.80;1.00
18721;DHT22;9489;50.948;3.114;2023-03-15T11:54:49;17.90;1.00
18721;DHT22;9489;50.948;3.114;2023-03-15T11:59:54;16.20;1.00
18721;DHT22;9489;50.948;3.114;2023-03-15T12:04:52;16.90;1.00
18721;DHT22;9489;50.948;3.114;2023-03-15T12:09:48;16.70;1.00
18721;DHT22;9489;50.948;3.114;2023-03-15T12:17:48;16.00;1.00
18721;DHT22;9489;50.948;3.114;2023-03-15T12:22:53;16.10;1.00
18721;DHT22;9489;50.948;3.114;2023-03-15T12:28:17;16.90;1.00
18721;DHT22;9489;50.948;3.114;2023-03-15T12:30:44;16.90;1.00
18721;DHT22;9489;50.948;3.114;2023-03-15T12:33:18;17.00;1.00
18721;DHT22;9489;50.948;3.114;2023-03-15T12:35:46;17.20;1.00
18721;DHT22;9489;50.948;3.114;2023-03-15T12:38:19;17.10;1.00
18721;DHT22;9489;50.948;3.114;2023-03-15T12:40:57;17.90;1.00
18721;DHT22;9489;50.948;3.114;2023-03-15T12:43:43;18.00;1.00
18721;DHT22;9489;50.948;3.114;2023-03-15T12:49:11;19.10;1.00
18721;DHT22;9489;50.948;3.114;2023-03-15T12:55:17;18.80;1.00
18721;DHT22;9489;50.948;3.114;2023-03-15T12:57:35;19.60;1.00
18721;DHT22;9489;50.948;3.114;2023-03-15T13:00:11;19.90;1.00
18721;DHT22;9489;50.948;3.114;2023-03-15T13:13:13;18.80;1.00
18721;DHT22;9489;50.948;3.114;2023-03-15T13:18:21;18.00;1.00
18721;DHT22;9489;50.948;3.114;2023-03-15T13:21:09;17.10;1.00
18721;DHT22;9489;50.948;3.114;2023-03-15T13:23:37;17.70;1.00
18721;DHT22;9489;50.948;3.114;2023-03-15T13:26:19;17.80;1.00
18721;DHT22;9489;50.948;3.114;2023-03-15T13:28:59;18.40;1.00
18721;DHT22;9489;50.948;3.114;2023-03-15T13:31:27;18.80;1.00
18721;DHT22;9489;50.948;3.114;2023-03-15T13:33:55;19.20;1.00
18721;DHT22;9489;50.948;3.114;2023-03-15T13:36:39;19.30;1.00
18721;DHT22;9489;50.948;3.114;2023-03-15T13:39:15;18.90;1.00
18721;DHT22;9489;50.948;3.114;2023-03-15T13:41:41;18.80;1.00
18721;DHT22;9489;50.948;3.114;2023-03-15T13:44:16;18.20;1.00
18721;DHT22;9489;50.948;3.114;2023-03-15T13:46:42;18.40;1.00
18721;DHT22;9489;50.948;3.114;2023-03-15T13:49:10;19.00;1.00
18721;DHT22;9489;50.948;3.114;2023-03-15T13:51:37;18.90;1.00
18721;DHT22;9489;50.948;3.114;2023-03-15T13:54:12;19.40;1.00
18721;DHT22;9489;50.948;3.114;2023-03-15T13:57:06;19.70;1.00
18721;DHT22;9489;50.948;3.114;2023-03-15T13:59:46;20.00;1.00
18721;DHT22;9489;50.948;3.114;2023-03-15T14:02:23;20.40;1.00
18721;DHT22;9489;50.948;3.114;2023-03-15T14:04:57;20.50;1.00
18721;DHT22;9489;50.948;3.114;2023-03-15T14:12:46;18.40;1.00
18721;DHT22;9489;50.948;3.114;2023-03-15T14:17:59;18.80;1.00
18721;DHT22;9489;50.948;3.114;2023-03-15T14:20:29;18.50;1.00
18721;DHT22;9489;50.948;3.114;2023-03-15T14:23:02;17.60;1.00
18721;DHT22;9489;50.948;3.114;2023-03-15T14:25:33;17.20;1.00
18721;DHT22;9489;50.948;3.114;2023-03-15T14:28:00;17.00;1.00
18721;DHT22;9489;50.948;3.114;2023-03-15T14:30:27;17.10;1.00
18721;DHT22;9489;50.948;3.114;2023-03-15T14:32:56;16.70;1.00
18721;DHT22;9489;50.948;3.114;2023-03-15T14:35:29;16.30;1.00
18721;DHT22;9489;50.948;3.114;2023-03-15T14:40:35;16.00;1.00
18721;DHT22;9489;50.948;3.114;2023-03-15T14:43:06;15.30;1.00
18721;DHT22;9489;50.948;3.114;2023-03-15T14:45:33;14.70;1.00
18721;DHT22;9489;50.948;3.114;2023-03-15T14:48:01;14.10;1.00
18721;DHT22;9489;50.948;3.114;2023-03-15T14:50:37;13.70;1.00
18721;DHT22;9489;50.948;3.114;2023-03-15T14:53:03;13.40;1.00
18721;DHT22;9489;50.948;3.114;2023-03-15T14:55:36;13.00;1.00
18721;DHT22;9489;50.948;3.114;2023-03-15T14:58:03;12.60;1.00
18721;DHT22;9489;50.948;3.114;2023-03-15T15:00:32;12.30;99.90
18721;DHT22;9489;50.948;3.114;2023-03-15T15:02:57;12.10;1.00
18721;DHT22;9489;50.948;3.114;2023-03-15T15:05:28;12.10;1.00
18721;DHT22;9489;50.948;3.114;2023-03-15T15:08:10;12.00;99.90
18721;DHT22;9489;50.948;3.114;2023-03-15T15:10:41;11.70;1.00
18721;DHT22;9489;50.948;3.114;2023-03-15T15:13:22;12.10;1.00
18721;DHT22;9489;50.948;3.114;2023-03-15T15:15:47;12.10;1.00
18721;DHT22;9489;50.948;3.114;2023-03-15T15:18:14;12.00;1.00
18721;DHT22;9489;50.948;3.114;2023-03-15T15:20:41;12.00;99.90
18721;DHT22;9489;50.948;3.114;2023-03-15T15:23:16;12.10;1.00
18721;DHT22;9489;50.948;3.114;2023-03-15T15:25:43;12.30;1.00
18721;DHT22;9489;50.948;3.114;2023-03-15T15:28:08;12.30;1.00
18721;DHT22;9489;50.948;3.114;2023-03-15T15:30:36;12.20;99.90
18721;DHT22;9489;50.948;3.114;2023-03-15T15:33:02;12.10;99.90
18721;DHT22;9489;50.948;3.114;2023-03-15T15:35:28;12.10;99.90
18721;DHT22;9489;50.948;3.114;2023-03-15T15:37:54;12.10;99.90
18721;DHT22;9489;50.948;3.114;2023-03-15T15:40:24;11.90;1.00
18721;DHT22;9489;50.948;3.114;2023-03-15T15:42:51;11.90;1.00
18721;DHT22;9489;50.948;3.114;2023-03-15T15:45:18;11.80;1.00
18721;DHT22;9489;50.948;3.114;2023-03-15T15:47:43;11.70;1.00
18721;DHT22;9489;50.948;3.114;2023-03-15T15:50:11;11.60;1.00
18721;DHT22;9489;50.948;3.114;2023-03-15T15:52:38;11.50;1.00
18721;DHT22;9489;50.948;3.114;2023-03-15T15:55:26;11.30;1.00
18721;DHT22;9489;50.948;3.114;2023-03-15T15:57:53;11.20;1.00
18721;DHT22;9489;50.948;3.114;2023-03-15T16:00:28;11.10;99.90
18721;DHT22;9489;50.948;3.114;2023-03-15T16:02:55;11.00;99.90
18721;DHT22;9489;50.948;3.114;2023-03-15T16:05:26;10.90;1.00
18721;DHT22;9489;50.948;3.114;2023-03-15T16:07:54;10.90;99.90
18721;DHT22;9489;50.948;3.114;2023-03-15T16:10:26;10.90;99.90
18721;DHT22;9489;50.948;3.114;2023-03-15T16:12:54;10.90;99.90
18721;DHT22;9489;50.948;3.114;2023-03-15T16:15:20;10.80;1.00
18721;DHT22;9489;50.948;3.114;2023-03-15T16:17:46;10.70;1.00
18721;DHT22;9489;50.948;3.114;2023-03-15T16:20:13;10.80;1.00
18721;DHT22;9489;50.948;3.114;2023-03-15T16:22:42;10.70;1.00
18721;DHT22;9489;50.948;3.114;2023-03-15T16:25:13;10.70;99.90
18721;DHT22;9489;50.948;3.114;2023-03-15T16:27:41;10.60;99.90
18721;DHT22;9489;50.948;3.114;2023-03-15T16:30:21;10.60;1.00
18721;DHT22;9489;50.948;3.114;2023-03-15T16:32:48;10.60;99.90
18721;DHT22;9489;50.948;3.114;2023-03-15T16:35:14;10.50;1.00
18721;DHT22;9489;50.948;3.114;2023-03-15T16:37:40;10.40;1.00
18721;DHT22;9489;50.948;3.114;2023-03-15T16:40:24;10.40;46.40
18721;DHT22;9489;50.948;3.114;2023-03-15T16:42:50;10.40;99.90
18721;DHT22;9489;50.948;3.114;2023-03-15T16:45:16;10.40;99.90
18721;DHT22;9489;50.948;3.114;2023-03-15T16:47:42;10.30;5.20
18721;DHT22;9489;50.948;3.114;2023-03-15T16:50:08;10.30;1.00
18721;DHT22;9489;50.948;3.114;2023-03-15T16:52:34;10.30;86.60
18721;DHT22;9489;50.948;3.114;2023-03-15T16:55:00;10.20;99.90
18721;DHT22;9489;50.948;3.114;2023-03-15T16:57:26;10.20;99.90
18721;DHT22;9489;50.948;3.114;2023-03-15T16:59:52;10.30;99.90
18721;DHT22;9489;50.948;3.114;2023-03-15T17:02:20;10.20;99.90
18721;DHT22;9489;50.948;3.114;2023-03-15T17:04:46;10.20;26.80
18721;DHT22;9489;50.948;3.114;2023-03-15T17:07:12;10.10;1.00
18721;DHT22;9489;50.948;3.114;2023-03-15T17:09:40;10.10;99.90
18721;DHT22;9489;50.948;3.114;2023-03-15T17:12:11;10.00;99.90
18721;DHT22;9489;50.948;3.114;2023-03-15T17:14:38;10.00;99.90
18721;DHT22;9489;50.948;3.114;2023-03-15T17:17:03;10.00;99.90